Time;durP1;ratioP1;P1;durP2;ratioP2;P2;SDS_P1;SDS_P2;PMS_P1;PMS_P2;Temp;Humidity;BMP_temperature;BMP_pressure;BME280_temperature;BME280_humidity;BME280_pressure;Samples;Min_cycle;Max_cycle;Signal;HPM_P1;HPM_P2
2021/06/03 00:02:07;;;;;;;3.67;3.43;;;17.40;99.20;;;;;;5076656;28;20178;-67
2021/06/03 00:04:33;;;;;;;3.20;2.87;;;17.40;98.90;;;;;;5076544;28;20624;-66
2021/06/03 00:06:59;;;;;;;3.60;3.30;;;17.40;99.20;;;;;;5076167;28;20833;-68
2021/06/03 00:09:25;;;;;;;3.87;3.27;;;17.40;99.40;;;;;;5076174;28;20455;-69
2021/06/03 00:11:51;;;;;;;3.03;2.83;;;17.40;99.50;;;;;;5076391;28;20157;-67
2021/06/03 00:14:18;;;;;;;3.67;3.33;;;17.30;99.60;;;;;;5076388;28;20790;-67
2021/06/03 00:16:44;;;;;;;2.70;2.50;;;17.30;99.70;;;;;;5075954;28;20185;-68
2021/06/03 00:19:10;;;;;;;3.60;3.30;;;17.30;99.90;;;;;;5076309;28;20926;-67
2021/06/03 00:21:37;;;;;;;4.40;3.30;;;17.30;99.80;;;;;;5076344;28;20650;-66
2021/06/03 00:24:04;;;;;;;4.10;3.70;;;17.30;99.80;;;;;;5076134;28;20412;-67
2021/06/03 00:26:29;;;;;;;7.47;3.50;;;17.30;99.80;;;;;;5075906;28;20473;-68
2021/06/03 00:28:55;;;;;;;3.73;3.43;;;17.30;99.80;;;;;;5076063;28;20963;-67
2021/06/03 00:31:21;;;;;;;3.43;2.80;;;17.20;99.80;;;;;;5075510;28;20157;-68
2021/06/03 00:33:47;;;;;;;3.70;3.40;;;17.10;99.90;;;;;;5076081;28;20165;-68
2021/06/03 00:36:13;;;;;;;3.90;3.50;;;17.10;99.90;;;;;;5075650;28;20450;-69
2021/06/03 00:38:40;;;;;;;3.67;3.37;;;16.90;99.90;;;;;;5075912;28;20576;-67
2021/06/03 00:41:07;;;;;;;3.23;3.00;;;16.90;99.90;;;;;;5075886;28;20760;-68
2021/06/03 00:43:33;;;;;;;4.23;3.40;;;17.00;99.90;;;;;;5075832;28;20400;-66
2021/06/03 00:45:59;;;;;;;7.77;3.10;;;17.00;99.90;;;;;;5075512;28;20438;-68
2021/06/03 00:48:24;;;;;;;3.70;3.40;;;17.00;99.90;;;;;;5075779;28;20193;-66
2021/06/03 00:50:53;;;;;;;4.20;3.77;;;17.00;99.90;;;;;;5075579;28;20252;-68
2021/06/03 00:53:19;;;;;;;6.90;4.00;;;17.00;99.90;;;;;;5075548;28;20169;-68
2021/06/03 00:55:54;;;;;;;4.50;4.10;;;17.10;99.90;;;;;;5075315;28;20419;-68
2021/06/03 00:58:20;;;;;;;4.40;4.00;;;17.10;99.90;;;;;;5075615;28;20493;-67
2021/06/03 01:00:48;;;;;;;4.37;3.93;;;17.10;99.90;;;;;;5075523;28;20428;-68
2021/06/03 01:03:14;;;;;;;3.80;3.50;;;17.20;99.90;;;;;;5075276;28;20403;-68
2021/06/03 01:05:51;;;;;;;4.13;3.73;;;17.20;99.90;;;;;;5075084;28;20859;-67
2021/06/03 01:08:21;;;;;;;7.13;3.80;;;17.20;99.90;;;;;;5075037;28;20208;-68
2021/06/03 01:11:12;;;;;;;4.13;3.83;;;17.20;99.90;;;;;;5075388;28;20898;-66
2021/06/03 01:13:52;;;;;;;4.47;4.07;;;17.20;99.90;;;;;;5075153;28;20392;-68
2021/06/03 01:16:20;;;;;;;3.80;3.43;;;17.30;99.90;;;;;;5075122;28;20419;-68
2021/06/03 01:18:47;;;;;;;4.80;4.40;;;17.30;99.90;;;;;;5075255;28;20416;-66
2021/06/03 01:21:35;;;;;;;4.53;3.93;;;17.30;99.90;;;;;;5075188;28;20404;-68
2021/06/03 01:24:22;;;;;;;4.00;3.70;;;17.30;99.90;;;;;;5074966;28;20407;-68
2021/06/03 01:26:49;;;;;;;3.60;3.37;;;17.20;99.90;;;;;;5074784;28;20502;-66
2021/06/03 01:29:18;;;;;;;3.40;3.10;;;17.20;99.90;;;;;;5075037;28;20474;-67
2021/06/03 01:31:48;;;;;;;5.03;4.30;;;17.20;99.90;;;;;;5074950;28;20403;-67
2021/06/03 01:34:14;;;;;;;3.63;3.43;;;17.20;99.90;;;;;;5074918;28;20398;-67
2021/06/03 01:36:41;;;;;;;4.30;3.47;;;17.20;99.90;;;;;;5074568;28;20917;-68
2021/06/03 01:39:09;;;;;;;3.73;3.00;;;17.10;99.90;;;;;;5074777;28;20412;-68
2021/06/03 01:41:34;;;;;;;7.10;4.60;;;17.00;99.90;;;;;;5072566;28;20415;-68
2021/06/03 01:44:01;;;;;;;3.63;3.33;;;16.90;99.90;;;;;;5074653;28;20410;-67
2021/06/03 01:46:27;;;;;;;4.47;3.30;;;16.80;99.90;;;;;;5074335;28;20189;-69
2021/06/03 01:48:56;;;;;;;6.30;4.10;;;16.70;99.90;;;;;;5074801;28;20455;-67
2021/06/03 01:51:23;;;;;;;4.13;3.67;;;16.60;99.90;;;;;;5074423;28;20456;-68
2021/06/03 01:53:48;;;;;;;4.37;3.97;;;16.50;99.90;;;;;;5074572;28;20904;-68
2021/06/03 01:56:16;;;;;;;4.60;4.20;;;16.50;99.90;;;;;;5074126;28;20468;-68
2021/06/03 01:58:42;;;;;;;4.70;4.00;;;16.50;99.90;;;;;;5074475;28;20197;-68
2021/06/03 02:01:08;;;;;;;5.50;4.43;;;16.50;99.90;;;;;;5074182;28;20422;-68
2021/06/03 02:03:35;;;;;;;4.90;4.50;;;16.60;99.90;;;;;;5074359;28;20407;-68
2021/06/03 02:06:00;;;;;;;4.63;4.20;;;16.70;99.90;;;;;;5073858;28;20858;-68
2021/06/03 02:08:26;;;;;;;7.33;4.80;;;16.70;99.90;;;;;;5073850;28;20534;-67
2021/06/03 02:10:53;;;;;;;5.93;4.70;;;16.70;99.90;;;;;;5074275;28;20457;-66
2021/06/03 02:13:25;;;;;;;4.20;3.90;;;16.70;99.90;;;;;;5074608;28;20399;-68
2021/06/03 02:16:01;;;;;;;4.63;4.23;;;16.70;99.90;;;;;;5074298;28;20423;-69
2021/06/03 02:18:31;;;;;;;5.50;4.47;;;16.50;99.90;;;;;;5073939;28;20439;-68
2021/06/03 02:20:59;;;;;;;4.17;3.77;;;16.60;99.90;;;;;;5074128;28;20446;-67
2021/06/03 02:23:27;;;;;;;4.30;3.90;;;16.60;99.90;;;;;;5073957;28;20414;-68
2021/06/03 02:25:56;;;;;;;6.27;5.33;;;16.60;99.90;;;;;;5073657;28;20420;-69
2021/06/03 02:28:22;;;;;;;5.97;5.47;;;16.70;99.90;;;;;;5073886;28;20448;-68
2021/06/03 02:30:49;;;;;;;5.10;4.50;;;16.70;99.90;;;;;;5074158;28;20427;-68
2021/06/03 02:33:15;;;;;;;4.90;4.40;;;16.70;99.90;;;;;;5073925;28;20897;-68
2021/06/03 02:35:41;;;;;;;4.10;3.70;;;16.70;99.90;;;;;;5073434;28;20921;-67
2021/06/03 02:38:07;;;;;;;5.70;5.00;;;16.70;99.90;;;;;;5073660;28;20407;-66
2021/06/03 02:40:33;;;;;;;4.07;3.77;;;16.70;99.90;;;;;;5072260;28;20777;-69
2021/06/03 02:42:58;;;;;;;4.30;3.90;;;16.70;99.90;;;;;;5073512;28;20168;-68
2021/06/03 02:45:29;;;;;;;4.90;4.23;;;16.70;99.90;;;;;;5073491;28;20192;-69
2021/06/03 02:47:56;;;;;;;4.27;3.87;;;16.70;99.90;;;;;;5073562;28;20387;-66
2021/06/03 02:50:23;;;;;;;4.57;4.13;;;16.80;99.90;;;;;;5073636;28;20445;-68
2021/06/03 02:52:50;;;;;;;5.73;4.03;;;16.90;99.90;;;;;;5072211;28;20489;-68
2021/06/03 02:55:18;;;;;;;6.40;4.07;;;16.90;99.90;;;;;;5073348;28;20881;-68
2021/06/03 02:57:44;;;;;;;5.87;4.50;;;16.90;99.90;;;;;;5073629;28;20437;-67
2021/06/03 03:00:16;;;;;;;5.20;4.70;;;17.00;99.90;;;;;;5073434;28;20413;-68
2021/06/03 03:02:42;;;;;;;4.50;4.20;;;17.00;99.90;;;;;;5072204;28;20710;-68
2021/06/03 03:05:08;;;;;;;4.60;4.20;;;17.00;99.90;;;;;;5073201;28;20490;-68
2021/06/03 03:07:35;;;;;;;4.43;3.97;;;17.00;99.90;;;;;;5073340;28;20532;-67
2021/06/03 03:10:03;;;;;;;5.20;4.53;;;17.00;99.90;;;;;;5073138;28;20888;-68
2021/06/03 03:12:28;;;;;;;5.30;4.87;;;16.80;99.90;;;;;;5073293;28;20453;-68
2021/06/03 03:14:54;;;;;;;5.43;4.73;;;16.70;99.90;;;;;;5073449;28;20403;-66
2021/06/03 03:17:20;;;;;;;3.90;3.60;;;16.70;99.90;;;;;;5073035;28;20560;-66
2021/06/03 03:19:45;;;;;;;4.90;4.50;;;16.80;99.90;;;;;;5073532;28;20175;-67
2021/06/03 03:22:11;;;;;;;10.30;4.67;;;16.80;99.90;;;;;;5073367;28;20169;-68
2021/06/03 03:24:37;;;;;;;5.37;4.87;;;16.80;99.90;;;;;;5073652;28;20176;-69
2021/06/03 03:27:03;;;;;;;5.00;4.60;;;16.80;99.90;;;;;;5072902;28;20193;-69
2021/06/03 03:29:29;;;;;;;4.60;3.97;;;16.80;99.90;;;;;;5073496;28;20605;-67
2021/06/03 03:31:55;;;;;;;4.10;3.70;;;16.80;99.90;;;;;;5073286;28;20497;-67
2021/06/03 03:34:20;;;;;;;4.20;3.80;;;16.90;99.90;;;;;;5073300;28;20194;-68
2021/06/03 03:36:46;;;;;;;5.00;4.50;;;16.90;99.90;;;;;;5072821;28;20423;-68
2021/06/03 03:39:12;;;;;;;4.33;3.93;;;16.90;99.90;;;;;;5073281;28;20174;-68
2021/06/03 03:41:38;;;;;;;4.33;3.90;;;17.00;99.90;;;;;;5073009;28;20181;-67
2021/06/03 03:44:04;;;;;;;3.77;3.47;;;17.00;99.90;;;;;;5073026;28;20893;-68
2021/06/03 03:46:30;;;;;;;3.77;3.53;;;17.10;99.90;;;;;;5072676;28;20431;-66
2021/06/03 03:48:56;;;;;;;5.47;4.30;;;17.10;99.90;;;;;;5072944;28;20450;-69
2021/06/03 03:51:22;;;;;;;4.20;3.80;;;17.10;99.90;;;;;;5072064;28;20180;-66
2021/06/03 03:53:47;;;;;;;4.53;4.17;;;17.20;99.90;;;;;;5072826;28;20162;-69
2021/06/03 03:56:13;;;;;;;4.90;4.47;;;17.20;99.90;;;;;;5072617;28;20441;-67
2021/06/03 03:58:42;;;;;;;5.90;5.40;;;17.20;99.90;;;;;;5072898;28;20519;-67
2021/06/03 04:01:10;;;;;;;4.70;4.30;;;17.30;99.90;;;;;;5072919;28;20166;-67
2021/06/03 04:03:36;;;;;;;5.10;4.67;;;17.30;99.90;;;;;;5072592;28;20411;-68
2021/06/03 04:06:02;;;;;;;19.73;4.20;;;17.30;99.90;;;;;;5074730;28;20788;-67
2021/06/03 04:08:28;;;;;;;4.87;4.47;;;17.40;99.90;;;;;;5075441;28;20907;-68
2021/06/03 04:10:53;;;;;;;4.40;3.20;;;17.40;99.90;;;;;;5075902;28;20491;-69
2021/06/03 04:13:20;;;;;;;3.80;3.50;;;17.30;99.90;;;;;;5076667;28;20217;-69
2021/06/03 04:15:45;;;;;;;3.17;2.93;;;17.40;99.80;;;;;;5076353;28;20184;-70
2021/06/03 04:18:11;;;;;;;3.53;3.17;;;17.60;99.90;;;;;;5076830;28;20431;-69
2021/06/03 04:20:37;;;;;;;2.73;2.53;;;17.90;99.40;;;;;;5076885;28;20177;-68
2021/06/03 04:23:02;;;;;;;3.37;2.77;;;18.20;98.20;;;;;;5076209;28;20166;-68
2021/06/03 04:25:29;;;;;;;3.20;3.00;;;19.10;98.10;;;;;;5076179;28;20177;-71
2021/06/03 04:27:55;;;;;;;2.67;2.47;;;18.60;98.00;;;;;;5076338;28;20170;-72
2021/06/03 04:30:23;;;;;;;8.60;3.30;;;18.50;98.30;;;;;;5076403;28;20456;-72
2021/06/03 04:32:50;;;;;;;3.67;3.37;;;18.40;98.60;;;;;;5076423;28;20404;-71
2021/06/03 04:35:18;;;;;;;3.07;2.80;;;18.20;99.10;;;;;;5075963;28;20414;-71
2021/06/03 04:37:44;;;;;;;3.13;2.67;;;18.00;99.00;;;;;;5076029;28;20403;-71
2021/06/03 04:40:12;;;;;;;4.40;3.30;;;17.90;99.70;;;;;;5076297;28;20410;-72
2021/06/03 04:42:38;;;;;;;6.30;3.57;;;17.90;99.80;;;;;;5075967;28;20507;-71
2021/06/03 04:45:05;;;;;;;3.67;3.37;;;17.60;99.90;;;;;;5076000;28;20490;-71
2021/06/03 04:47:31;;;;;;;4.60;4.20;;;17.50;99.90;;;;;;5076332;28;20412;-72
2021/06/03 04:49:57;;;;;;;7.30;3.60;;;17.30;99.90;;;;;;5076242;28;20542;-67
2021/06/03 04:52:26;;;;;;;3.40;3.20;;;17.00;99.90;;;;;;5075726;28;20868;-67
2021/06/03 04:54:54;;;;;;;3.37;3.07;;;16.80;99.90;;;;;;5075809;28;20540;-73
2021/06/03 04:57:19;;;;;;;4.30;3.90;;;16.90;99.90;;;;;;5075727;28;20426;-68
2021/06/03 04:59:45;;;;;;;3.07;2.87;;;17.00;99.90;;;;;;5075586;28;20768;-71
2021/06/03 05:02:11;;;;;;;4.70;3.43;;;17.20;99.90;;;;;;5076023;28;20176;-68
2021/06/03 05:04:37;;;;;;;3.90;3.50;;;17.40;99.90;;;;;;5075846;28;20178;-69
2021/06/03 05:07:02;;;;;;;3.00;2.70;;;17.50;99.90;;;;;;5075342;28;20189;-68
2021/06/03 05:09:28;;;;;;;3.67;3.40;;;17.50;99.90;;;;;;5075606;28;20224;-67
2021/06/03 05:11:54;;;;;;;4.90;4.17;;;17.50;99.90;;;;;;5075331;28;20972;-69
2021/06/03 05:14:19;;;;;;;4.30;3.60;;;17.60;99.90;;;;;;5075799;28;20169;-66
2021/06/03 05:16:45;;;;;;;4.00;3.60;;;17.70;99.90;;;;;;5073835;28;20186;-69
2021/06/03 05:19:11;;;;;;;4.73;3.77;;;17.80;99.90;;;;;;5075406;28;20181;-69
2021/06/03 05:21:37;;;;;;;3.87;3.50;;;17.90;99.90;;;;;;5075233;28;20173;-70
2021/06/03 05:24:04;;;;;;;4.83;4.53;;;17.90;99.90;;;;;;5075306;28;20173;-70
2021/06/03 05:26:30;;;;;;;5.07;4.27;;;18.00;99.90;;;;;;5074655;28;20432;-70
2021/06/03 05:28:56;;;;;;;4.13;3.83;;;18.00;99.90;;;;;;5075439;28;20473;-68
2021/06/03 05:31:21;;;;;;;5.90;5.33;;;18.10;99.90;;;;;;5073801;28;20683;-69
2021/06/03 05:33:47;;;;;;;4.97;4.30;;;18.20;99.90;;;;;;5075275;28;20172;-68
2021/06/03 05:36:12;;;;;;;9.57;3.80;;;18.20;99.90;;;;;;5074829;28;20196;-69
2021/06/03 05:38:38;;;;;;;4.73;4.23;;;18.20;99.90;;;;;;5074985;28;20165;-68
2021/06/03 05:41:04;;;;;;;4.83;4.30;;;18.30;99.90;;;;;;5075054;28;20589;-70
2021/06/03 05:43:29;;;;;;;5.73;3.90;;;18.40;99.90;;;;;;5075124;28;20635;-68
2021/06/03 05:45:59;;;;;;;5.43;4.90;;;18.40;99.90;;;;;;5074720;28;20197;-70
2021/06/03 05:48:26;;;;;;;4.70;4.40;;;18.60;99.90;;;;;;5074370;28;20169;-70
2021/06/03 05:50:52;;;;;;;5.40;4.97;;;18.80;99.90;;;;;;5074474;28;20392;-70
2021/06/03 05:53:18;;;;;;;6.53;4.47;;;19.20;99.70;;;;;;5074327;28;20399;-67
2021/06/03 05:55:49;;;;;;;5.00;4.60;;;19.50;98.40;;;;;;5074120;28;20913;-68
2021/06/03 05:58:15;;;;;;;5.50;5.00;;;19.80;97.60;;;;;;5074475;28;20392;-70
2021/06/03 06:00:41;;;;;;;6.00;4.80;;;19.90;97.10;;;;;;5074306;28;20461;-67
2021/06/03 06:03:17;;;;;;;7.80;6.07;;;19.90;96.70;;;;;;5074156;28;20422;-67
2021/06/03 06:06:09;;;;;;;6.50;5.77;;;19.90;96.80;;;;;;5073922;28;20420;-68
2021/06/03 06:08:36;;;;;;;4.10;3.70;;;19.90;96.80;;;;;;5074075;28;20519;-69
2021/06/03 06:11:02;;;;;;;4.70;4.27;;;20.00;96.60;;;;;;5072974;28;20437;-70
2021/06/03 06:13:32;;;;;;;4.47;4.10;;;20.10;96.90;;;;;;5072777;28;20487;-70
2021/06/03 06:15:59;;;;;;;4.33;3.90;;;20.30;96.30;;;;;;5073758;28;20432;-68
2021/06/03 06:18:27;;;;;;;4.23;3.83;;;20.30;96.20;;;;;;5056250;28;20415;-68
2021/06/03 06:20:53;;;;;;;3.97;3.50;;;20.40;96.30;;;;;;5074190;28;20405;-70
2021/06/03 06:23:20;;;;;;;4.30;3.87;;;20.70;96.40;;;;;;5073981;28;20402;-68
2021/06/03 06:25:48;;;;;;;3.80;3.50;;;21.00;95.80;;;;;;5073762;28;20785;-67
2021/06/03 06:28:17;;;;;;;3.03;2.83;;;21.20;95.70;;;;;;5071958;28;20419;-69
2021/06/03 06:30:44;;;;;;;9.90;3.57;;;21.30;94.30;;;;;;5073893;28;20405;-68
2021/06/03 06:33:10;;;;;;;4.13;3.83;;;21.20;94.50;;;;;;5073546;28;20905;-71
2021/06/03 06:35:37;;;;;;;3.47;3.17;;;21.10;95.20;;;;;;5073738;28;20435;-69
2021/06/03 06:38:05;;;;;;;4.03;3.60;;;21.00;94.90;;;;;;5073600;28;20432;-70
2021/06/03 06:40:31;;;;;;;3.70;3.40;;;20.90;95.40;;;;;;5073581;28;20820;-71
2021/06/03 06:42:57;;;;;;;3.90;3.57;;;20.80;95.70;;;;;;5072157;28;20913;-71
2021/06/03 06:45:31;;;;;;;3.30;2.70;;;20.80;95.00;;;;;;5073499;28;20447;-66
2021/06/03 06:47:57;;;;;;;4.07;3.70;;;20.80;95.50;;;;;;5073723;28;20826;-67
2021/06/03 06:50:24;;;;;;;4.33;3.93;;;20.90;96.00;;;;;;5073708;28;20538;-68
2021/06/03 06:52:50;;;;;;;4.03;2.93;;;20.90;95.60;;;;;;5071690;28;20406;-67
2021/06/03 06:55:16;;;;;;;4.07;3.73;;;20.80;95.80;;;;;;5072978;28;20401;-68
2021/06/03 06:57:42;;;;;;;4.07;3.70;;;20.80;96.10;;;;;;5071864;28;20609;-68
2021/06/03 07:00:11;;;;;;;3.70;3.40;;;20.80;96.80;;;;;;5073716;28;20731;-68
2021/06/03 07:02:38;;;;;;;3.97;3.67;;;20.60;97.20;;;;;;5073497;28;20175;-67
2021/06/03 07:05:07;;;;;;;2.53;2.37;;;20.60;96.80;;;;;;5073915;28;20406;-68
2021/06/03 07:07:33;;;;;;;3.23;3.00;;;20.40;96.60;;;;;;5073800;28;20412;-67
2021/06/03 07:10:00;;;;;;;3.50;2.77;;;20.30;96.90;;;;;;5073374;28;20544;-68
2021/06/03 07:12:25;;;;;;;3.10;2.77;;;20.40;96.00;;;;;;5073564;28;20448;-68
2021/06/03 07:14:51;;;;;;;2.40;2.20;;;20.60;96.60;;;;;;5073228;28;20407;-70
2021/06/03 07:17:17;;;;;;;4.10;3.00;;;20.70;96.80;;;;;;5073593;28;20713;-67
2021/06/03 07:19:43;;;;;;;3.30;3.00;;;20.90;96.90;;;;;;5073888;28;20263;-70
2021/06/03 07:22:09;;;;;;;4.77;3.57;;;21.10;96.80;;;;;;5073237;28;20177;-68
2021/06/03 07:24:36;;;;;;;4.30;2.33;;;21.40;96.00;;;;;;5072162;28;20626;-69
2021/06/03 07:27:03;;;;;;;2.87;2.67;;;21.50;94.90;;;;;;5073081;28;20486;-70
2021/06/03 07:29:28;;;;;;;2.77;2.57;;;21.70;94.10;;;;;;5073231;28;20936;-69
2021/06/03 07:31:54;;;;;;;2.50;2.30;;;21.60;94.40;;;;;;5073644;28;20400;-69
2021/06/03 07:34:20;;;;;;;3.53;3.23;;;21.50;92.70;;;;;;5073758;28;20178;-69
2021/06/03 07:36:46;;;;;;;3.57;2.83;;;21.50;92.30;;;;;;5073069;28;20648;-70
2021/06/03 07:39:11;;;;;;;5.73;2.33;;;21.70;93.60;;;;;;5073360;28;20227;-69
2021/06/03 07:41:37;;;;;;;3.03;2.70;;;21.70;92.10;;;;;;5076689;28;20176;-69
2021/06/03 07:44:04;;;;;;;4.23;2.93;;;21.60;92.20;;;;;;5077333;28;20408;-72
2021/06/03 07:46:30;;;;;;;2.50;2.30;;;21.60;92.50;;;;;;5075325;28;20772;-66
2021/06/03 07:48:56;;;;;;;3.57;3.27;;;21.60;93.50;;;;;;5077298;28;20446;-68
2021/06/03 07:51:22;;;;;;;2.53;2.33;;;21.80;92.50;;;;;;5075491;28;20416;-67
2021/06/03 07:53:48;;;;;;;5.90;4.33;;;21.90;93.70;;;;;;5076837;28;20534;-69
2021/06/03 07:56:15;;;;;;;2.57;2.47;;;21.70;91.40;;;;;;5076739;28;20417;-67
2021/06/03 07:58:41;;;;;;;3.73;2.57;;;21.80;91.20;;;;;;5077192;28;20171;-69
2021/06/03 08:01:06;;;;;;;2.80;2.60;;;21.80;90.90;;;;;;5076936;28;20400;-68
2021/06/03 08:03:32;;;;;;;3.03;2.73;;;21.70;91.10;;;;;;5076446;28;20170;-66
2021/06/03 08:05:58;;;;;;;3.73;2.60;;;21.70;91.30;;;;;;5076388;28;20592;-66
2021/06/03 08:08:24;;;;;;;3.80;2.50;;;21.60;91.70;;;;;;5076410;28;20427;-67
2021/06/03 08:10:49;;;;;;;3.53;3.23;;;21.60;91.00;;;;;;5076772;28;20627;-66
2021/06/03 08:13:16;;;;;;;2.83;2.63;;;21.50;91.80;;;;;;5076769;28;20653;-68
2021/06/03 08:15:43;;;;;;;2.70;2.50;;;21.40;91.50;;;;;;5076363;28;20319;-68
2021/06/03 08:18:10;;;;;;;3.90;2.70;;;21.30;92.20;;;;;;5076698;28;20491;-68
2021/06/03 08:20:45;;;;;;;4.27;3.30;;;21.00;91.60;;;;;;5076284;28;20408;-67
2021/06/03 08:23:13;;;;;;;2.83;2.63;;;21.00;92.70;;;;;;5076447;28;20408;-69
2021/06/03 08:25:39;;;;;;;2.90;2.70;;;21.10;91.80;;;;;;5076063;28;20450;-68
2021/06/03 08:28:05;;;;;;;4.63;3.90;;;21.40;91.00;;;;;;5076640;28;20874;-68
2021/06/03 08:30:31;;;;;;;5.00;3.00;;;21.70;91.90;;;;;;5076584;28;20565;-69
2021/06/03 08:32:57;;;;;;;4.17;3.60;;;21.90;91.00;;;;;;5076044;28;20413;-67
2021/06/03 08:35:23;;;;;;;3.97;3.13;;;22.10;90.30;;;;;;5075783;28;20949;-68
2021/06/03 08:37:52;;;;;;;3.70;3.27;;;22.30;90.50;;;;;;5075909;28;20173;-68
2021/06/03 08:40:21;;;;;;;2.57;2.27;;;22.70;90.40;;;;;;5076330;28;20402;-68
2021/06/03 08:42:51;;;;;;;3.53;2.80;;;22.90;90.00;;;;;;5075055;28;20469;-67
2021/06/03 08:45:17;;;;;;;4.03;3.00;;;23.20;88.80;;;;;;5076092;28;20411;-69
2021/06/03 08:47:43;;;;;;;3.80;3.47;;;23.30;89.90;;;;;;5075979;28;20422;-67
2021/06/03 08:50:10;;;;;;;3.43;3.13;;;23.30;85.50;;;;;;5075838;28;20443;-68
2021/06/03 08:52:36;;;;;;;5.13;3.17;;;23.30;85.60;;;;;;5075723;28;20242;-67
2021/06/03 08:55:08;;;;;;;3.03;2.70;;;23.40;85.20;;;;;;5075660;28;20412;-68
2021/06/03 08:57:34;;;;;;;3.97;3.43;;;23.70;84.20;;;;;;5076248;28;20408;-66
2021/06/03 09:00:01;;;;;;;2.90;2.70;;;23.80;85.40;;;;;;5075766;28;20487;-67
2021/06/03 09:02:27;;;;;;;3.63;3.33;;;24.10;83.20;;;;;;5075795;28;20403;-67
2021/06/03 09:04:53;;;;;;;4.07;3.00;;;24.30;81.60;;;;;;5075700;28;20756;-69
2021/06/03 09:07:37;;;;;;;3.77;3.30;;;24.40;82.00;;;;;;5075587;28;20442;-67
2021/06/03 09:10:25;;;;;;;3.40;3.10;;;24.40;81.30;;;;;;5075803;28;20207;-68
2021/06/03 09:13:12;;;;;;;4.23;2.80;;;24.30;81.70;;;;;;5075381;28;20483;-67
2021/06/03 09:15:41;;;;;;;4.13;3.00;;;24.30;81.90;;;;;;5075038;28;20476;-68
2021/06/03 09:18:09;;;;;;;3.60;3.27;;;24.70;81.10;;;;;;5075684;28;20390;-67
2021/06/03 09:20:36;;;;;;;3.60;2.83;;;25.50;80.00;;;;;;5075758;28;20404;-66
2021/06/03 09:23:02;;;;;;;7.27;3.67;;;26.00;77.60;;;;;;5075060;28;20415;-69
2021/06/03 09:25:31;;;;;;;3.20;2.73;;;26.40;72.00;;;;;;5074817;28;20424;-68
2021/06/03 09:28:16;;;;;;;3.60;2.90;;;27.20;71.90;;;;;;5075340;28;20174;-69
2021/06/03 09:31:04;;;;;;;3.10;2.80;;;28.40;66.00;;;;;;5075513;28;20374;-69
2021/06/03 09:33:48;;;;;;;4.40;2.87;;;29.10;63.30;;;;;;5075284;28;20443;-69
2021/06/03 09:36:17;;;;;;;4.90;3.10;;;29.50;58.20;;;;;;5074544;28;20503;-68
2021/06/03 09:38:54;;;;;;;3.07;2.87;;;29.70;59.80;;;;;;5075177;28;20392;-68
2021/06/03 09:41:21;;;;;;;2.70;2.40;;;29.30;58.00;;;;;;5074862;28;20406;-66
2021/06/03 09:43:47;;;;;;;3.10;2.87;;;29.00;58.40;;;;;;5074855;28;20442;-68
2021/06/03 09:46:16;;;;;;;4.80;2.80;;;29.10;58.20;;;;;;5074830;28;20424;-67
2021/06/03 09:48:44;;;;;;;2.50;2.30;;;29.00;57.00;;;;;;5074763;28;20447;-68
2021/06/03 09:51:26;;;;;;;2.60;2.00;;;28.30;57.20;;;;;;5073641;28;20411;-68
2021/06/03 09:54:02;;;;;;;4.87;3.87;;;27.70;60.00;;;;;;5074881;28;20487;-69
2021/06/03 09:56:33;;;;;;;3.93;2.90;;;27.30;58.70;;;;;;5074359;28;20433;-68
2021/06/03 09:59:00;;;;;;;6.57;3.07;;;26.90;59.20;;;;;;5074713;28;20383;-69
2021/06/03 10:01:47;;;;;;;3.30;3.00;;;26.90;58.90;;;;;;5074621;28;20488;-69
2021/06/03 10:04:16;;;;;;;3.27;3.07;;;27.40;59.40;;;;;;5074233;28;20434;-67
2021/06/03 10:06:52;;;;;;;3.20;2.90;;;27.80;58.10;;;;;;5074022;28;20969;-69
2021/06/03 10:09:33;;;;;;;2.40;2.20;;;28.80;56.90;;;;;;5074415;28;20504;-69
2021/06/03 10:11:58;;;;;;;2.27;1.97;;;29.60;53.10;;;;;;5074504;28;20430;-69
2021/06/03 10:14:26;;;;;;;3.53;2.30;;;29.60;52.90;;;;;;5074430;28;20431;-67
2021/06/03 10:16:51;;;;;;;3.37;1.60;;;29.30;52.30;;;;;;5073894;28;20178;-69
2021/06/03 10:19:18;;;;;;;2.90;1.97;;;29.20;53.60;;;;;;5074023;28;20755;-67
2021/06/03 10:22:04;;;;;;;4.23;2.33;;;29.00;54.50;;;;;;5073911;28;20169;-70
2021/06/03 10:24:50;;;;;;;6.93;3.20;;;28.90;55.00;;;;;;5074198;28;20442;-69
2021/06/03 10:27:17;;;;;;;2.50;2.30;;;28.10;59.70;;;;;;5073818;28;20901;-69
2021/06/03 10:29:43;;;;;;;2.63;2.30;;;27.70;59.60;;;;;;5074024;28;20443;-68
2021/06/03 10:32:10;;;;;;;2.03;1.90;;;27.60;57.20;;;;;;5073897;28;20399;-67
2021/06/03 10:34:36;;;;;;;3.73;2.30;;;27.40;58.40;;;;;;5074317;28;20428;-67
2021/06/03 10:37:03;;;;;;;2.93;2.70;;;27.10;57.60;;;;;;5073820;28;20470;-69
2021/06/03 10:39:30;;;;;;;3.33;2.93;;;26.60;57.60;;;;;;5074193;28;20432;-68
2021/06/03 10:41:56;;;;;;;4.10;2.50;;;26.40;58.50;;;;;;5073569;28;20426;-69
2021/06/03 10:44:22;;;;;;;2.13;2.00;;;26.00;57.50;;;;;;5073889;28;20786;-68
2021/06/03 10:46:48;;;;;;;2.67;2.47;;;25.70;59.50;;;;;;5073614;28;20410;-68
2021/06/03 10:49:16;;;;;;;5.77;2.50;;;25.50;59.50;;;;;;5073800;28;20815;-69
2021/06/03 10:51:42;;;;;;;2.27;1.70;;;25.10;59.70;;;;;;5073991;28;20228;-69
2021/06/03 10:54:08;;;;;;;2.20;2.00;;;25.30;60.40;;;;;;5073931;28;20408;-69
2021/06/03 10:56:34;;;;;;;2.13;1.93;;;25.60;59.40;;;;;;5073324;28;20514;-68
2021/06/03 10:59:04;;;;;;;2.27;1.90;;;25.70;60.20;;;;;;5073569;28;20685;-67
2021/06/03 11:01:34;;;;;;;3.53;2.40;;;25.90;61.80;;;;;;5073684;28;20385;-68
2021/06/03 11:04:02;;;;;;;4.53;2.70;;;26.30;57.70;;;;;;5073886;28;20416;-68
2021/06/03 11:06:41;;;;;;;7.50;2.43;;;26.40;59.30;;;;;;5073305;28;20481;-68
2021/06/03 11:09:08;;;;;;;5.50;2.00;;;26.80;60.70;;;;;;5073591;28;20470;-69
2021/06/03 11:11:36;;;;;;;2.20;1.73;;;26.80;58.20;;;;;;5073459;28;20382;-68
2021/06/03 11:14:08;;;;;;;4.93;2.47;;;26.00;59.80;;;;;;5074405;28;20465;-67
2021/06/03 11:16:38;;;;;;;6.60;2.30;;;25.20;61.90;;;;;;5077179;28;20394;-67
2021/06/03 11:19:06;;;;;;;7.43;2.20;;;25.20;62.70;;;;;;5077905;28;20495;-68
2021/06/03 11:21:31;;;;;;;3.23;2.90;;;25.00;59.80;;;;;;5077640;28;20408;-68
2021/06/03 11:23:58;;;;;;;3.33;1.80;;;25.00;60.00;;;;;;5077464;28;20378;-68
2021/06/03 11:29:28;;;;;;;4.20;2.63;;;25.40;66.20;;;;;;5077541;28;20487;-68
2021/06/03 11:32:05;;;;;;;3.17;2.10;;;26.20;62.00;;;;;;5077801;28;20373;-67
2021/06/03 11:34:52;;;;;;;1.70;1.60;;;26.60;64.50;;;;;;5077477;28;20382;-69
2021/06/03 11:37:27;;;;;;;6.00;2.10;;;26.90;59.50;;;;;;5077227;28;20394;-69
2021/06/03 11:40:16;;;;;;;3.10;1.77;;;26.70;58.10;;;;;;5077134;28;20386;-68
2021/06/03 11:42:45;;;;;;;3.40;2.67;;;26.40;57.70;;;;;;5076898;28;20471;-68
2021/06/03 11:45:30;;;;;;;3.93;2.13;;;25.80;58.50;;;;;;5076590;28;20392;-67
2021/06/03 11:48:05;;;;;;;4.33;2.40;;;25.60;59.40;;;;;;5077333;28;20367;-68
2021/06/03 11:50:31;;;;;;;3.20;2.53;;;25.10;60.00;;;;;;5076905;28;20425;-68
2021/06/03 11:52:57;;;;;;;3.47;2.93;;;24.80;63.30;;;;;;5077171;28;20946;-68
2021/06/03 11:55:59;;;;;;;4.60;2.60;;;24.70;61.90;;;;;;5076518;28;20525;-68
2021/06/03 11:58:28;;;;;;;4.13;2.33;;;24.70;63.10;;;;;;5077176;28;20403;-68
2021/06/03 12:00:59;;;;;;;3.97;2.43;;;24.80;62.90;;;;;;5077233;28;20398;-67
2021/06/03 12:03:31;;;;;;;2.33;2.13;;;24.80;63.50;;;;;;5077007;28;20392;-68
2021/06/03 12:06:36;;;;;;;3.60;2.33;;;24.90;63.70;;;;;;5076468;28;20778;-69
2021/06/03 12:09:14;;;;;;;3.33;3.03;;;25.10;64.80;;;;;;5075701;28;20521;-68
2021/06/03 12:11:53;;;;;;;4.90;3.03;;;25.00;62.30;;;;;;5076426;28;20363;-68
2021/06/03 12:14:24;;;;;;;3.63;2.80;;;25.00;65.10;;;;;;5076504;28;20418;-68
2021/06/03 12:16:59;;;;;;;4.67;2.37;;;24.90;64.60;;;;;;5075022;28;20419;-67
2021/06/03 12:19:31;;;;;;;2.77;2.57;;;24.60;64.00;;;;;;5075145;28;20430;-68
2021/06/03 12:22:06;;;;;;;4.13;2.00;;;24.40;65.40;;;;;;5076368;28;20403;-67
2021/06/03 12:24:33;;;;;;;2.80;2.60;;;24.10;67.10;;;;;;5076401;28;20392;-67
2021/06/03 12:26:59;;;;;;;3.83;2.30;;;24.00;68.30;;;;;;5075099;28;20430;-67
2021/06/03 12:29:30;;;;;;;6.90;2.50;;;24.00;65.20;;;;;;5075989;28;20447;-68
2021/06/03 12:31:56;;;;;;;2.57;2.37;;;24.10;68.90;;;;;;5076333;28;20168;-67
2021/06/03 12:34:25;;;;;;;3.30;2.30;;;24.00;71.20;;;;;;5076149;28;20486;-68
2021/06/03 12:36:52;;;;;;;3.13;2.30;;;24.00;70.60;;;;;;5075901;28;20177;-68
2021/06/03 12:39:18;;;;;;;4.97;3.10;;;24.10;69.30;;;;;;5075978;28;20404;-68
2021/06/03 12:41:45;;;;;;;2.53;2.33;;;24.20;67.30;;;;;;5076194;28;20933;-68
2021/06/03 12:44:15;;;;;;;4.90;2.57;;;24.20;65.80;;;;;;5076003;28;20964;-66
2021/06/03 12:46:45;;;;;;;2.60;1.93;;;24.40;66.90;;;;;;5075588;28;20408;-68
2021/06/03 12:49:18;;;;;;;3.43;2.07;;;24.40;66.40;;;;;;5076108;28;20534;-67
2021/06/03 12:51:59;;;;;;;2.23;2.03;;;24.80;68.10;;;;;;5075677;28;20423;-67
2021/06/03 12:54:35;;;;;;;2.40;2.10;;;25.30;64.80;;;;;;5075789;28;20366;-68
2021/06/03 12:57:05;;;;;;;2.10;1.90;;;25.70;61.40;;;;;;5075548;28;20386;-68
2021/06/03 12:59:32;;;;;;;3.03;1.97;;;25.70;61.50;;;;;;5075466;28;20775;-68